sensor_id;sensor_type;location;lat;lon;timestamp;P1;durP1;ratioP1;P2;durP2;ratioP2
5483;SDS011;2764;48.794;8.326;2022-09-13T00:00:52;8.70;;;3.03;;
5483;SDS011;2764;48.794;8.326;2022-09-13T00:01:54;3.37;;;3.10;;
5483;SDS011;2764;48.794;8.326;2022-09-13T00:02:55;5.00;;;3.27;;
5483;SDS011;2764;48.794;8.326;2022-09-13T00:03:57;4.50;;;2.70;;
5483;SDS011;2764;48.794;8.326;2022-09-13T00:04:59;3.10;;;2.97;;
5483;SDS011;2764;48.794;8.326;2022-09-13T00:06:07;3.03;;;2.83;;
5483;SDS011;2764;48.794;8.326;2022-09-13T00:07:13;3.33;;;3.00;;
5483;SDS011;2764;48.794;8.326;2022-09-13T00:08:15;2.40;;;2.30;;
5483;SDS011;2764;48.794;8.326;2022-09-13T00:09:18;4.23;;;3.20;;
5483;SDS011;2764;48.794;8.326;2022-09-13T00:10:19;3.10;;;2.73;;
5483;SDS011;2764;48.794;8.326;2022-09-13T00:11:23;4.50;;;3.10;;
5483;SDS011;2764;48.794;8.326;2022-09-13T00:12:26;4.90;;;3.27;;
5483;SDS011;2764;48.794;8.326;2022-09-13T00:13:28;4.20;;;3.17;;
5483;SDS011;2764;48.794;8.326;2022-09-13T00:14:29;3.30;;;3.00;;
5483;SDS011;2764;48.794;8.326;2022-09-13T00:15:31;3.47;;;3.17;;
5483;SDS011;2764;48.794;8.326;2022-09-13T00:16:33;2.90;;;2.60;;
5483;SDS011;2764;48.794;8.326;2022-09-13T00:17:34;3.60;;;3.30;;
5483;SDS011;2764;48.794;8.326;2022-09-13T00:18:36;3.30;;;3.10;;
5483;SDS011;2764;48.794;8.326;2022-09-13T00:19:37;3.10;;;2.87;;
5483;SDS011;2764;48.794;8.326;2022-09-13T00:20:39;4.00;;;3.60;;
5483;SDS011;2764;48.794;8.326;2022-09-13T00:21:41;3.63;;;3.37;;
5483;SDS011;2764;48.794;8.326;2022-09-13T00:22:43;3.13;;;2.93;;
5483;SDS011;2764;48.794;8.326;2022-09-13T00:23:45;4.43;;;3.07;;
5483;SDS011;2764;48.794;8.326;2022-09-13T00:24:48;5.87;;;3.20;;
5483;SDS011;2764;48.794;8.326;2022-09-13T00:25:49;6.97;;;3.23;;
5483;SDS011;2764;48.794;8.326;2022-09-13T00:26:51;3.30;;;3.00;;
5483;SDS011;2764;48.794;8.326;2022-09-13T00:27:52;3.37;;;3.07;;
5483;SDS011;2764;48.794;8.326;2022-09-13T00:28:57;4.60;;;3.30;;
5483;SDS011;2764;48.794;8.326;2022-09-13T00:29:59;3.07;;;2.83;;
5483;SDS011;2764;48.794;8.326;2022-09-13T00:31:04;6.73;;;2.70;;
5483;SDS011;2764;48.794;8.326;2022-09-13T00:32:07;3.00;;;2.73;;
5483;SDS011;2764;48.794;8.326;2022-09-13T00:33:08;3.23;;;3.10;;
5483;SDS011;2764;48.794;8.326;2022-09-13T00:34:10;3.50;;;3.20;;
5483;SDS011;2764;48.794;8.326;2022-09-13T00:35:11;2.70;;;2.60;;
5483;SDS011;2764;48.794;8.326;2022-09-13T00:36:13;6.63;;;3.57;;
5483;SDS011;2764;48.794;8.326;2022-09-13T00:37:18;7.73;;;2.77;;
5483;SDS011;2764;48.794;8.326;2022-09-13T00:39:57;5.70;;;3.13;;
5483;SDS011;2764;48.794;8.326;2022-09-13T00:41:05;9.80;;;2.70;;
5483;SDS011;2764;48.794;8.326;2022-09-13T00:42:12;3.70;;;3.37;;
5483;SDS011;2764;48.794;8.326;2022-09-13T00:43:16;3.10;;;2.90;;
5483;SDS011;2764;48.794;8.326;2022-09-13T00:46:03;6.03;;;3.03;;
5483;SDS011;2764;48.794;8.326;2022-09-13T00:47:05;3.50;;;3.20;;
5483;SDS011;2764;48.794;8.326;2022-09-13T00:48:06;2.83;;;2.63;;
5483;SDS011;2764;48.794;8.326;2022-09-13T00:51:23;3.50;;;3.20;;
5483;SDS011;2764;48.794;8.326;2022-09-13T00:52:25;2.73;;;2.53;;
5483;SDS011;2764;48.794;8.326;2022-09-13T00:53:32;3.43;;;2.80;;
5483;SDS011;2764;48.794;8.326;2022-09-13T00:54:40;3.97;;;2.80;;
5483;SDS011;2764;48.794;8.326;2022-09-13T00:56:53;3.33;;;3.13;;
5483;SDS011;2764;48.794;8.326;2022-09-13T00:57:59;3.10;;;2.80;;
5483;SDS011;2764;48.794;8.326;2022-09-13T00:59:27;5.33;;;3.10;;
5483;SDS011;2764;48.794;8.326;2022-09-13T01:00:30;2.80;;;2.70;;
5483;SDS011;2764;48.794;8.326;2022-09-13T01:01:33;3.17;;;2.97;;
5483;SDS011;2764;48.794;8.326;2022-09-13T01:02:50;3.30;;;3.00;;
5483;SDS011;2764;48.794;8.326;2022-09-13T01:04:13;3.30;;;3.00;;
5483;SDS011;2764;48.794;8.326;2022-09-13T01:05:21;6.40;;;2.63;;
5483;SDS011;2764;48.794;8.326;2022-09-13T01:06:26;5.93;;;3.30;;
5483;SDS011;2764;48.794;8.326;2022-09-13T01:07:31;5.03;;;2.90;;
5483;SDS011;2764;48.794;8.326;2022-09-13T01:08:33;2.77;;;2.57;;
5483;SDS011;2764;48.794;8.326;2022-09-13T01:09:37;3.40;;;3.10;;
5483;SDS011;2764;48.794;8.326;2022-09-13T01:10:43;3.00;;;2.90;;
5483;SDS011;2764;48.794;8.326;2022-09-13T01:14:18;3.93;;;3.17;;
5483;SDS011;2764;48.794;8.326;2022-09-13T01:15:20;7.80;;;3.03;;
5483;SDS011;2764;48.794;8.326;2022-09-13T01:16:22;2.30;;;2.20;;
5483;SDS011;2764;48.794;8.326;2022-09-13T01:17:25;2.87;;;2.73;;
5483;SDS011;2764;48.794;8.326;2022-09-13T01:18:28;2.90;;;2.67;;
5483;SDS011;2764;48.794;8.326;2022-09-13T01:19:30;3.20;;;3.00;;
5483;SDS011;2764;48.794;8.326;2022-09-13T01:24:43;6.73;;;3.30;;
5483;SDS011;2764;48.794;8.326;2022-09-13T01:25:58;6.90;;;2.83;;
5483;SDS011;2764;48.794;8.326;2022-09-13T01:27:25;3.30;;;3.20;;
5483;SDS011;2764;48.794;8.326;2022-09-13T01:30:19;6.57;;;2.80;;
5483;SDS011;2764;48.794;8.326;2022-09-13T01:35:22;3.20;;;3.00;;
5483;SDS011;2764;48.794;8.326;2022-09-13T01:38:03;2.77;;;2.63;;
5483;SDS011;2764;48.794;8.326;2022-09-13T01:39:18;2.97;;;2.77;;
5483;SDS011;2764;48.794;8.326;2022-09-13T01:45:36;2.67;;;2.57;;
5483;SDS011;2764;48.794;8.326;2022-09-13T01:46:50;3.93;;;3.00;;
5483;SDS011;2764;48.794;8.326;2022-09-13T01:49:31;10.27;;;3.00;;
5483;SDS011;2764;48.794;8.326;2022-09-13T01:50:36;3.00;;;2.80;;
5483;SDS011;2764;48.794;8.326;2022-09-13T01:53:04;3.50;;;3.23;;
5483;SDS011;2764;48.794;8.326;2022-09-13T01:54:35;3.50;;;2.73;;
5483;SDS011;2764;48.794;8.326;2022-09-13T01:59:46;5.13;;;2.97;;
5483;SDS011;2764;48.794;8.326;2022-09-13T02:03:28;2.70;;;2.60;;
5483;SDS011;2764;48.794;8.326;2022-09-13T02:04:38;7.23;;;3.10;;
5483;SDS011;2764;48.794;8.326;2022-09-13T02:05:48;3.20;;;3.00;;
5483;SDS011;2764;48.794;8.326;2022-09-13T02:07:06;5.40;;;3.20;;
5483;SDS011;2764;48.794;8.326;2022-09-13T02:08:10;4.30;;;3.00;;
5483;SDS011;2764;48.794;8.326;2022-09-13T02:09:18;3.20;;;3.00;;
5483;SDS011;2764;48.794;8.326;2022-09-13T02:10:32;2.90;;;2.80;;
5483;SDS011;2764;48.794;8.326;2022-09-13T02:11:39;3.60;;;3.30;;
5483;SDS011;2764;48.794;8.326;2022-09-13T02:12:44;3.20;;;3.10;;
5483;SDS011;2764;48.794;8.326;2022-09-13T02:13:50;4.60;;;3.40;;
5483;SDS011;2764;48.794;8.326;2022-09-13T02:14:54;2.70;;;2.50;;
5483;SDS011;2764;48.794;8.326;2022-09-13T02:16:09;3.40;;;3.10;;
5483;SDS011;2764;48.794;8.326;2022-09-13T02:17:17;3.80;;;3.50;;
5483;SDS011;2764;48.794;8.326;2022-09-13T02:18:25;3.70;;;3.47;;
5483;SDS011;2764;48.794;8.326;2022-09-13T02:19:37;3.63;;;3.07;;
5483;SDS011;2764;48.794;8.326;2022-09-13T02:20:44;8.50;;;3.30;;
5483;SDS011;2764;48.794;8.326;2022-09-13T02:21:51;3.53;;;3.23;;
5483;SDS011;2764;48.794;8.326;2022-09-13T02:23:01;7.40;;;3.40;;
5483;SDS011;2764;48.794;8.326;2022-09-13T02:24:05;4.50;;;3.30;;
5483;SDS011;2764;48.794;8.326;2022-09-13T02:25:12;4.00;;;3.70;;
5483;SDS011;2764;48.794;8.326;2022-09-13T02:26:18;3.83;;;3.53;;
5483;SDS011;2764;48.794;8.326;2022-09-13T02:27:26;3.93;;;3.43;;
5483;SDS011;2764;48.794;8.326;2022-09-13T02:28:35;3.10;;;2.90;;
5483;SDS011;2764;48.794;8.326;2022-09-13T02:29:43;4.10;;;3.17;;
5483;SDS011;2764;48.794;8.326;2022-09-13T02:30:48;5.97;;;3.07;;
5483;SDS011;2764;48.794;8.326;2022-09-13T02:33:36;4.90;;;3.53;;
5483;SDS011;2764;48.794;8.326;2022-09-13T02:34:46;3.50;;;3.30;;
5483;SDS011;2764;48.794;8.326;2022-09-13T02:35:54;4.10;;;3.70;;
5483;SDS011;2764;48.794;8.326;2022-09-13T02:37:02;5.33;;;3.53;;
5483;SDS011;2764;48.794;8.326;2022-09-13T02:38:08;4.63;;;3.20;;
5483;SDS011;2764;48.794;8.326;2022-09-13T02:39:14;3.73;;;3.43;;
5483;SDS011;2764;48.794;8.326;2022-09-13T02:40:19;3.40;;;3.20;;
5483;SDS011;2764;48.794;8.326;2022-09-13T02:41:29;5.67;;;3.60;;
5483;SDS011;2764;48.794;8.326;2022-09-13T02:42:42;3.30;;;3.07;;
5483;SDS011;2764;48.794;8.326;2022-09-13T02:43:50;8.90;;;2.87;;
5483;SDS011;2764;48.794;8.326;2022-09-13T02:44:58;4.63;;;3.30;;
5483;SDS011;2764;48.794;8.326;2022-09-13T02:48:35;3.87;;;3.67;;
5483;SDS011;2764;48.794;8.326;2022-09-13T02:51:56;6.63;;;3.10;;
5483;SDS011;2764;48.794;8.326;2022-09-13T02:53:23;3.40;;;3.10;;
5483;SDS011;2764;48.794;8.326;2022-09-13T02:56:20;4.57;;;3.10;;
5483;SDS011;2764;48.794;8.326;2022-09-13T02:57:37;4.20;;;3.07;;
5483;SDS011;2764;48.794;8.326;2022-09-13T02:59:52;3.53;;;3.23;;
5483;SDS011;2764;48.794;8.326;2022-09-13T03:00:54;7.30;;;3.67;;
5483;SDS011;2764;48.794;8.326;2022-09-13T03:03:04;5.23;;;3.43;;
5483;SDS011;2764;48.794;8.326;2022-09-13T03:04:08;10.80;;;3.30;;
5483;SDS011;2764;48.794;8.326;2022-09-13T03:05:10;4.47;;;3.00;;
5483;SDS011;2764;48.794;8.326;2022-09-13T03:06:11;3.40;;;3.20;;
5483;SDS011;2764;48.794;8.326;2022-09-13T03:07:13;6.80;;;3.30;;
5483;SDS011;2764;48.794;8.326;2022-09-13T03:08:15;7.07;;;3.33;;
5483;SDS011;2764;48.794;8.326;2022-09-13T03:09:18;3.30;;;3.03;;
5483;SDS011;2764;48.794;8.326;2022-09-13T03:10:21;5.03;;;3.30;;
5483;SDS011;2764;48.794;8.326;2022-09-13T03:22:50;4.40;;;3.50;;
5483;SDS011;2764;48.794;8.326;2022-09-13T03:24:22;3.50;;;3.20;;
5483;SDS011;2764;48.794;8.326;2022-09-13T03:28:38;4.90;;;3.13;;
5483;SDS011;2764;48.794;8.326;2022-09-13T03:30:12;6.37;;;3.60;;
5483;SDS011;2764;48.794;8.326;2022-09-13T03:33:01;7.00;;;3.70;;
5483;SDS011;2764;48.794;8.326;2022-09-13T03:36:55;9.60;;;3.43;;
5483;SDS011;2764;48.794;8.326;2022-09-13T03:38:05;4.00;;;2.90;;
5483;SDS011;2764;48.794;8.326;2022-09-13T03:41:34;3.10;;;3.00;;
5483;SDS011;2764;48.794;8.326;2022-09-13T03:42:42;4.30;;;2.80;;
5483;SDS011;2764;48.794;8.326;2022-09-13T03:43:49;4.93;;;3.20;;
5483;SDS011;2764;48.794;8.326;2022-09-13T03:44:56;3.47;;;3.27;;
5483;SDS011;2764;48.794;8.326;2022-09-13T03:45:59;2.90;;;2.70;;
5483;SDS011;2764;48.794;8.326;2022-09-13T03:47:06;3.20;;;2.97;;
5483;SDS011;2764;48.794;8.326;2022-09-13T03:48:11;2.97;;;2.77;;
5483;SDS011;2764;48.794;8.326;2022-09-13T03:49:15;3.80;;;3.10;;
5483;SDS011;2764;48.794;8.326;2022-09-13T03:50:19;2.87;;;2.77;;
5483;SDS011;2764;48.794;8.326;2022-09-13T03:51:23;3.90;;;3.40;;
5483;SDS011;2764;48.794;8.326;2022-09-13T03:52:25;7.70;;;3.53;;
5483;SDS011;2764;48.794;8.326;2022-09-13T03:53:27;10.80;;;3.97;;
5483;SDS011;2764;48.794;8.326;2022-09-13T03:54:32;8.77;;;3.23;;
5483;SDS011;2764;48.794;8.326;2022-09-13T03:55:39;6.87;;;3.00;;
5483;SDS011;2764;48.794;8.326;2022-09-13T03:56:42;3.30;;;2.97;;
5483;SDS011;2764;48.794;8.326;2022-09-13T03:57:44;4.27;;;3.10;;
5483;SDS011;2764;48.794;8.326;2022-09-13T03:58:47;5.63;;;3.50;;
5483;SDS011;2764;48.794;8.326;2022-09-13T03:59:50;7.37;;;3.30;;
5483;SDS011;2764;48.794;8.326;2022-09-13T04:00:54;3.90;;;3.60;;
5483;SDS011;2764;48.794;8.326;2022-09-13T04:01:55;3.43;;;3.13;;
5483;SDS011;2764;48.794;8.326;2022-09-13T04:02:57;7.50;;;3.23;;
5483;SDS011;2764;48.794;8.326;2022-09-13T04:03:58;4.80;;;3.47;;
5483;SDS011;2764;48.794;8.326;2022-09-13T04:05:00;4.20;;;3.60;;
5483;SDS011;2764;48.794;8.326;2022-09-13T04:06:02;5.33;;;3.27;;
5483;SDS011;2764;48.794;8.326;2022-09-13T04:07:04;9.63;;;3.47;;
5483;SDS011;2764;48.794;8.326;2022-09-13T04:08:06;3.27;;;2.97;;
5483;SDS011;2764;48.794;8.326;2022-09-13T04:09:08;3.10;;;2.90;;
5483;SDS011;2764;48.794;8.326;2022-09-13T04:10:10;5.13;;;2.67;;
5483;SDS011;2764;48.794;8.326;2022-09-13T04:11:14;7.23;;;3.10;;
5483;SDS011;2764;48.794;8.326;2022-09-13T04:12:16;3.10;;;2.90;;
5483;SDS011;2764;48.794;8.326;2022-09-13T04:13:19;6.10;;;3.27;;
5483;SDS011;2764;48.794;8.326;2022-09-13T04:14:22;3.20;;;2.90;;
5483;SDS011;2764;48.794;8.326;2022-09-13T04:15:26;5.40;;;3.33;;
5483;SDS011;2764;48.794;8.326;2022-09-13T04:16:29;3.13;;;2.57;;
5483;SDS011;2764;48.794;8.326;2022-09-13T04:17:30;4.80;;;2.97;;
5483;SDS011;2764;48.794;8.326;2022-09-13T04:18:32;3.33;;;3.07;;
5483;SDS011;2764;48.794;8.326;2022-09-13T04:19:34;2.90;;;2.67;;
5483;SDS011;2764;48.794;8.326;2022-09-13T04:20:36;4.77;;;2.40;;
5483;SDS011;2764;48.794;8.326;2022-09-13T04:21:37;7.30;;;3.23;;
5483;SDS011;2764;48.794;8.326;2022-09-13T04:22:39;3.00;;;2.50;;
5483;SDS011;2764;48.794;8.326;2022-09-13T04:23:41;8.97;;;3.40;;
5483;SDS011;2764;48.794;8.326;2022-09-13T04:24:42;3.70;;;2.50;;
5483;SDS011;2764;48.794;8.326;2022-09-13T04:25:44;3.10;;;2.70;;
5483;SDS011;2764;48.794;8.326;2022-09-13T04:26:49;2.77;;;2.57;;
5483;SDS011;2764;48.794;8.326;2022-09-13T04:27:54;6.30;;;2.67;;
5483;SDS011;2764;48.794;8.326;2022-09-13T04:28:57;5.73;;;2.43;;
5483;SDS011;2764;48.794;8.326;2022-09-13T04:29:58;3.93;;;2.60;;
5483;SDS011;2764;48.794;8.326;2022-09-13T04:31:00;3.13;;;2.83;;
5483;SDS011;2764;48.794;8.326;2022-09-13T04:32:01;2.90;;;2.70;;
5483;SDS011;2764;48.794;8.326;2022-09-13T04:33:03;3.00;;;2.83;;
5483;SDS011;2764;48.794;8.326;2022-09-13T04:34:05;9.40;;;3.03;;
5483;SDS011;2764;48.794;8.326;2022-09-13T04:35:07;5.03;;;2.70;;
5483;SDS011;2764;48.794;8.326;2022-09-13T04:36:09;9.47;;;2.97;;
5483;SDS011;2764;48.794;8.326;2022-09-13T04:37:10;3.43;;;2.53;;
5483;SDS011;2764;48.794;8.326;2022-09-13T04:38:12;3.30;;;2.63;;
5483;SDS011;2764;48.794;8.326;2022-09-13T04:39:14;2.73;;;2.57;;
5483;SDS011;2764;48.794;8.326;2022-09-13T04:40:15;3.90;;;3.60;;
5483;SDS011;2764;48.794;8.326;2022-09-13T04:41:17;3.37;;;3.07;;
5483;SDS011;2764;48.794;8.326;2022-09-13T04:42:19;3.73;;;2.43;;
5483;SDS011;2764;48.794;8.326;2022-09-13T04:43:21;3.77;;;3.57;;
5483;SDS011;2764;48.794;8.326;2022-09-13T04:44:22;5.47;;;3.47;;
5483;SDS011;2764;48.794;8.326;2022-09-13T04:45:24;7.83;;;3.17;;
5483;SDS011;2764;48.794;8.326;2022-09-13T04:46:27;3.70;;;3.40;;
5483;SDS011;2764;48.794;8.326;2022-09-13T04:47:29;4.03;;;3.53;;
5483;SDS011;2764;48.794;8.326;2022-09-13T04:48:31;5.77;;;4.07;;
5483;SDS011;2764;48.794;8.326;2022-09-13T04:49:32;4.80;;;3.63;;
5483;SDS011;2764;48.794;8.326;2022-09-13T04:50:34;3.90;;;3.57;;
5483;SDS011;2764;48.794;8.326;2022-09-13T04:51:35;8.00;;;3.57;;
5483;SDS011;2764;48.794;8.326;2022-09-13T04:52:37;3.80;;;3.50;;
5483;SDS011;2764;48.794;8.326;2022-09-13T04:53:39;4.73;;;3.80;;
5483;SDS011;2764;48.794;8.326;2022-09-13T04:54:40;4.23;;;3.33;;
5483;SDS011;2764;48.794;8.326;2022-09-13T04:55:42;3.37;;;3.07;;
5483;SDS011;2764;48.794;8.326;2022-09-13T04:56:43;5.43;;;3.70;;
5483;SDS011;2764;48.794;8.326;2022-09-13T04:57:45;3.87;;;3.57;;
5483;SDS011;2764;48.794;8.326;2022-09-13T04:58:49;7.03;;;3.77;;
5483;SDS011;2764;48.794;8.326;2022-09-13T04:59:51;3.90;;;3.60;;
5483;SDS011;2764;48.794;8.326;2022-09-13T05:00:52;5.10;;;4.03;;
5483;SDS011;2764;48.794;8.326;2022-09-13T05:01:57;5.80;;;3.87;;
5483;SDS011;2764;48.794;8.326;2022-09-13T05:02:58;4.53;;;4.33;;
5483;SDS011;2764;48.794;8.326;2022-09-13T05:04:00;3.93;;;3.53;;
5483;SDS011;2764;48.794;8.326;2022-09-13T05:05:02;4.43;;;4.10;;
5483;SDS011;2764;48.794;8.326;2022-09-13T05:06:05;7.73;;;4.00;;
5483;SDS011;2764;48.794;8.326;2022-09-13T05:07:08;7.53;;;3.73;;
5483;SDS011;2764;48.794;8.326;2022-09-13T05:08:10;9.83;;;4.00;;
5483;SDS011;2764;48.794;8.326;2022-09-13T05:09:12;7.73;;;3.57;;
5483;SDS011;2764;48.794;8.326;2022-09-13T05:10:14;5.10;;;3.40;;
5483;SDS011;2764;48.794;8.326;2022-09-13T05:11:23;4.17;;;3.87;;
5483;SDS011;2764;48.794;8.326;2022-09-13T05:12:26;7.00;;;4.43;;
5483;SDS011;2764;48.794;8.326;2022-09-13T05:13:28;5.07;;;3.70;;
5483;SDS011;2764;48.794;8.326;2022-09-13T05:14:30;4.53;;;3.70;;
5483;SDS011;2764;48.794;8.326;2022-09-13T05:15:31;3.73;;;3.50;;
5483;SDS011;2764;48.794;8.326;2022-09-13T05:16:33;7.37;;;4.10;;
5483;SDS011;2764;48.794;8.326;2022-09-13T05:17:35;9.27;;;4.17;;
5483;SDS011;2764;48.794;8.326;2022-09-13T05:18:36;4.10;;;3.70;;
5483;SDS011;2764;48.794;8.326;2022-09-13T05:19:44;4.70;;;3.30;;
5483;SDS011;2764;48.794;8.326;2022-09-13T05:20:46;3.90;;;3.60;;
5483;SDS011;2764;48.794;8.326;2022-09-13T05:21:47;7.37;;;4.13;;
5483;SDS011;2764;48.794;8.326;2022-09-13T05:22:50;3.90;;;3.57;;
5483;SDS011;2764;48.794;8.326;2022-09-13T05:23:52;3.63;;;3.43;;
5483;SDS011;2764;48.794;8.326;2022-09-13T05:24:55;8.30;;;4.10;;
5483;SDS011;2764;48.794;8.326;2022-09-13T05:27:00;3.87;;;3.37;;
5483;SDS011;2764;48.794;8.326;2022-09-13T05:28:01;9.13;;;3.40;;
5483;SDS011;2764;48.794;8.326;2022-09-13T05:29:03;3.93;;;3.63;;
5483;SDS011;2764;48.794;8.326;2022-09-13T05:30:05;7.63;;;3.73;;
5483;SDS011;2764;48.794;8.326;2022-09-13T05:31:09;3.33;;;2.93;;
5483;SDS011;2764;48.794;8.326;2022-09-13T05:32:23;3.50;;;3.30;;
5483;SDS011;2764;48.794;8.326;2022-09-13T05:33:25;3.27;;;2.80;;
5483;SDS011;2764;48.794;8.326;2022-09-13T05:34:28;8.43;;;3.77;;
5483;SDS011;2764;48.794;8.326;2022-09-13T05:35:30;3.57;;;3.37;;
5483;SDS011;2764;48.794;8.326;2022-09-13T05:36:31;3.70;;;3.27;;
5483;SDS011;2764;48.794;8.326;2022-09-13T05:37:33;14.93;;;3.73;;
5483;SDS011;2764;48.794;8.326;2022-09-13T05:38:35;4.00;;;3.50;;
5483;SDS011;2764;48.794;8.326;2022-09-13T05:39:37;6.30;;;3.57;;
5483;SDS011;2764;48.794;8.326;2022-09-13T05:41:02;5.83;;;3.50;;
5483;SDS011;2764;48.794;8.326;2022-09-13T05:42:05;7.97;;;4.00;;
5483;SDS011;2764;48.794;8.326;2022-09-13T05:43:06;3.73;;;3.50;;
5483;SDS011;2764;48.794;8.326;2022-09-13T05:44:08;6.17;;;3.40;;
5483;SDS011;2764;48.794;8.326;2022-09-13T05:45:13;5.13;;;3.60;;
5483;SDS011;2764;48.794;8.326;2022-09-13T05:46:16;3.87;;;3.57;;
5483;SDS011;2764;48.794;8.326;2022-09-13T05:47:20;5.80;;;3.17;;
5483;SDS011;2764;48.794;8.326;2022-09-13T05:48:21;8.73;;;3.83;;
5483;SDS011;2764;48.794;8.326;2022-09-13T05:49:23;4.00;;;3.40;;
5483;SDS011;2764;48.794;8.326;2022-09-13T05:50:24;10.30;;;3.73;;
5483;SDS011;2764;48.794;8.326;2022-09-13T05:51:46;7.87;;;3.70;;
5483;SDS011;2764;48.794;8.326;2022-09-13T05:52:54;11.00;;;3.90;;
5483;SDS011;2764;48.794;8.326;2022-09-13T05:53:56;7.07;;;3.70;;
5483;SDS011;2764;48.794;8.326;2022-09-13T05:54:58;9.40;;;4.50;;
5483;SDS011;2764;48.794;8.326;2022-09-13T05:56:00;6.40;;;4.40;;
5483;SDS011;2764;48.794;8.326;2022-09-13T05:57:02;6.03;;;3.80;;
5483;SDS011;2764;48.794;8.326;2022-09-13T05:58:04;19.70;;;4.50;;
5483;SDS011;2764;48.794;8.326;2022-09-13T05:59:05;8.40;;;3.37;;
5483;SDS011;2764;48.794;8.326;2022-09-13T06:00:07;7.40;;;4.17;;
5483;SDS011;2764;48.794;8.326;2022-09-13T06:01:10;14.20;;;4.37;;
5483;SDS011;2764;48.794;8.326;2022-09-13T06:02:13;5.93;;;3.63;;
5483;SDS011;2764;48.794;8.326;2022-09-13T06:03:14;4.70;;;3.70;;
5483;SDS011;2764;48.794;8.326;2022-09-13T06:04:16;6.67;;;3.43;;
5483;SDS011;2764;48.794;8.326;2022-09-13T06:05:17;3.27;;;3.03;;
5483;SDS011;2764;48.794;8.326;2022-09-13T06:06:19;9.83;;;4.10;;
5483;SDS011;2764;48.794;8.326;2022-09-13T06:07:21;3.60;;;3.30;;
5483;SDS011;2764;48.794;8.326;2022-09-13T06:08:23;7.13;;;3.53;;
5483;SDS011;2764;48.794;8.326;2022-09-13T06:09:26;5.77;;;3.43;;
5483;SDS011;2764;48.794;8.326;2022-09-13T06:10:28;5.73;;;4.03;;
5483;SDS011;2764;48.794;8.326;2022-09-13T06:11:29;8.30;;;3.60;;
5483;SDS011;2764;48.794;8.326;2022-09-13T06:12:32;5.37;;;3.60;;
5483;SDS011;2764;48.794;8.326;2022-09-13T06:13:33;10.07;;;3.17;;
5483;SDS011;2764;48.794;8.326;2022-09-13T06:14:35;6.20;;;3.23;;
5483;SDS011;2764;48.794;8.326;2022-09-13T06:15:36;4.10;;;3.20;;
5483;SDS011;2764;48.794;8.326;2022-09-13T06:16:43;7.73;;;2.73;;
5483;SDS011;2764;48.794;8.326;2022-09-13T06:17:45;5.33;;;3.33;;
5483;SDS011;2764;48.794;8.326;2022-09-13T06:18:46;3.70;;;3.40;;
5483;SDS011;2764;48.794;8.326;2022-09-13T06:19:48;3.37;;;3.07;;
5483;SDS011;2764;48.794;8.326;2022-09-13T06:20:49;3.53;;;3.13;;
5483;SDS011;2764;48.794;8.326;2022-09-13T06:21:51;8.23;;;3.13;;
5483;SDS011;2764;48.794;8.326;2022-09-13T06:22:53;8.63;;;2.90;;
5483;SDS011;2764;48.794;8.326;2022-09-13T06:23:55;3.60;;;2.73;;
5483;SDS011;2764;48.794;8.326;2022-09-13T06:24:57;2.80;;;2.10;;
5483;SDS011;2764;48.794;8.326;2022-09-13T06:27:09;3.90;;;2.40;;
5483;SDS011;2764;48.794;8.326;2022-09-13T06:28:10;3.00;;;2.77;;
5483;SDS011;2764;48.794;8.326;2022-09-13T06:29:13;2.47;;;2.30;;
5483;SDS011;2764;48.794;8.326;2022-09-13T06:30:14;4.23;;;1.97;;
5483;SDS011;2764;48.794;8.326;2022-09-13T06:31:17;6.93;;;2.27;;
5483;SDS011;2764;48.794;8.326;2022-09-13T06:32:20;6.77;;;2.17;;
5483;SDS011;2764;48.794;8.326;2022-09-13T06:33:22;7.93;;;2.57;;
5483;SDS011;2764;48.794;8.326;2022-09-13T06:34:23;7.23;;;2.30;;
5483;SDS011;2764;48.794;8.326;2022-09-13T06:35:31;5.63;;;2.43;;
5483;SDS011;2764;48.794;8.326;2022-09-13T06:36:32;5.03;;;2.30;;
5483;SDS011;2764;48.794;8.326;2022-09-13T06:37:34;1.97;;;1.87;;
5483;SDS011;2764;48.794;8.326;2022-09-13T06:38:36;2.00;;;1.90;;
5483;SDS011;2764;48.794;8.326;2022-09-13T06:39:39;7.03;;;1.70;;
5483;SDS011;2764;48.794;8.326;2022-09-13T06:40:41;5.20;;;2.20;;
5483;SDS011;2764;48.794;8.326;2022-09-13T06:41:43;2.40;;;2.20;;
5483;SDS011;2764;48.794;8.326;2022-09-13T06:42:44;4.13;;;2.33;;
5483;SDS011;2764;48.794;8.326;2022-09-13T06:43:46;6.20;;;2.10;;
5483;SDS011;2764;48.794;8.326;2022-09-13T06:44:52;2.23;;;2.10;;
5483;SDS011;2764;48.794;8.326;2022-09-13T06:45:57;6.40;;;2.43;;
5483;SDS011;2764;48.794;8.326;2022-09-13T06:46:59;4.27;;;2.00;;
5483;SDS011;2764;48.794;8.326;2022-09-13T06:48:01;3.40;;;2.03;;
5483;SDS011;2764;48.794;8.326;2022-09-13T06:49:04;4.47;;;1.90;;
5483;SDS011;2764;48.794;8.326;2022-09-13T06:50:07;2.27;;;2.07;;
5483;SDS011;2764;48.794;8.326;2022-09-13T06:51:10;5.37;;;2.00;;
5483;SDS011;2764;48.794;8.326;2022-09-13T06:52:14;3.40;;;2.23;;
5483;SDS011;2764;48.794;8.326;2022-09-13T06:53:15;3.70;;;2.10;;
5483;SDS011;2764;48.794;8.326;2022-09-13T06:54:17;2.13;;;1.63;;
5483;SDS011;2764;48.794;8.326;2022-09-13T06:55:19;7.20;;;1.67;;
5483;SDS011;2764;48.794;8.326;2022-09-13T06:56:27;2.70;;;2.10;;
5483;SDS011;2764;48.794;8.326;2022-09-13T06:57:33;5.13;;;1.97;;
5483;SDS011;2764;48.794;8.326;2022-09-13T06:58:35;2.70;;;1.87;;
5483;SDS011;2764;48.794;8.326;2022-09-13T06:59:37;2.47;;;1.77;;
5483;SDS011;2764;48.794;8.326;2022-09-13T07:00:39;6.20;;;1.70;;
5483;SDS011;2764;48.794;8.326;2022-09-13T07:01:41;2.30;;;1.93;;
5483;SDS011;2764;48.794;8.326;2022-09-13T07:02:44;1.90;;;1.70;;
5483;SDS011;2764;48.794;8.326;2022-09-13T07:03:51;2.23;;;1.57;;
5483;SDS011;2764;48.794;8.326;2022-09-13T07:04:54;6.73;;;1.60;;
5483;SDS011;2764;48.794;8.326;2022-09-13T07:05:56;1.47;;;1.37;;
5483;SDS011;2764;48.794;8.326;2022-09-13T07:06:58;2.77;;;1.60;;
5483;SDS011;2764;48.794;8.326;2022-09-13T07:08:00;5.13;;;1.30;;
5483;SDS011;2764;48.794;8.326;2022-09-13T07:09:03;9.90;;;1.70;;
5483;SDS011;2764;48.794;8.326;2022-09-13T07:10:07;3.47;;;1.50;;
5483;SDS011;2764;48.794;8.326;2022-09-13T07:11:10;3.33;;;1.60;;
5483;SDS011;2764;48.794;8.326;2022-09-13T07:12:13;1.73;;;1.60;;
5483;SDS011;2764;48.794;8.326;2022-09-13T07:13:20;4.07;;;1.47;;
5483;SDS011;2764;48.794;8.326;2022-09-13T07:14:23;7.37;;;1.37;;
5483;SDS011;2764;48.794;8.326;2022-09-13T07:15:25;2.50;;;1.77;;
5483;SDS011;2764;48.794;8.326;2022-09-13T07:16:29;1.73;;;1.20;;
5483;SDS011;2764;48.794;8.326;2022-09-13T07:17:31;2.77;;;1.20;;
5483;SDS011;2764;48.794;8.326;2022-09-13T07:18:33;4.70;;;1.33;;
5483;SDS011;2764;48.794;8.326;2022-09-13T07:19:35;1.50;;;1.40;;
5483;SDS011;2764;48.794;8.326;2022-09-13T07:20:37;2.10;;;1.37;;
5483;SDS011;2764;48.794;8.326;2022-09-13T07:21:38;1.50;;;1.40;;
5483;SDS011;2764;48.794;8.326;2022-09-13T07:22:40;3.33;;;1.50;;
5483;SDS011;2764;48.794;8.326;2022-09-13T07:23:41;10.00;;;1.60;;
5483;SDS011;2764;48.794;8.326;2022-09-13T07:24:43;4.67;;;1.60;;
5483;SDS011;2764;48.794;8.326;2022-09-13T07:25:52;1.60;;;1.50;;
5483;SDS011;2764;48.794;8.326;2022-09-13T07:26:55;2.00;;;1.30;;
5483;SDS011;2764;48.794;8.326;2022-09-13T07:27:56;1.17;;;1.17;;
5483;SDS011;2764;48.794;8.326;2022-09-13T07:28:58;2.70;;;1.37;;
5483;SDS011;2764;48.794;8.326;2022-09-13T07:30:01;3.27;;;1.43;;
5483;SDS011;2764;48.794;8.326;2022-09-13T07:31:04;1.20;;;1.20;;
5483;SDS011;2764;48.794;8.326;2022-09-13T07:32:09;1.87;;;1.40;;
5483;SDS011;2764;48.794;8.326;2022-09-13T07:33:10;3.87;;;1.90;;
5483;SDS011;2764;48.794;8.326;2022-09-13T07:34:14;10.33;;;2.13;;
5483;SDS011;2764;48.794;8.326;2022-09-13T07:35:17;1.80;;;1.70;;
5483;SDS011;2764;48.794;8.326;2022-09-13T07:36:19;5.97;;;1.77;;
5483;SDS011;2764;48.794;8.326;2022-09-13T07:37:21;4.17;;;1.67;;
5483;SDS011;2764;48.794;8.326;2022-09-13T07:38:23;3.40;;;1.63;;
5483;SDS011;2764;48.794;8.326;2022-09-13T07:39:25;1.93;;;1.67;;
5483;SDS011;2764;48.794;8.326;2022-09-13T07:40:26;3.50;;;1.90;;
5483;SDS011;2764;48.794;8.326;2022-09-13T07:41:28;1.93;;;1.80;;
5483;SDS011;2764;48.794;8.326;2022-09-13T07:42:32;1.53;;;1.43;;
5483;SDS011;2764;48.794;8.326;2022-09-13T07:43:34;2.47;;;1.60;;
5483;SDS011;2764;48.794;8.326;2022-09-13T07:44:36;9.93;;;1.50;;
5483;SDS011;2764;48.794;8.326;2022-09-13T07:45:40;6.33;;;1.60;;
5483;SDS011;2764;48.794;8.326;2022-09-13T07:46:41;2.07;;;1.23;;
5483;SDS011;2764;48.794;8.326;2022-09-13T07:47:46;1.80;;;1.70;;
5483;SDS011;2764;48.794;8.326;2022-09-13T07:48:47;1.60;;;1.50;;